sensor_id;sensor_type;location;lat;lon;timestamp;P1;durP1;ratioP1;P2;durP2;ratioP2
1378;SDS011;683;48.738;9.226;2023-02-28T00:01:10;5.90;;;4.00;;
1378;SDS011;683;48.738;9.226;2023-02-28T00:03:39;4.10;;;2.90;;
1378;SDS011;683;48.738;9.226;2023-02-28T00:06:06;5.17;;;4.00;;
1378;SDS011;683;48.738;9.226;2023-02-28T00:08:36;4.03;;;3.17;;
1378;SDS011;683;48.738;9.226;2023-02-28T00:11:06;3.53;;;3.23;;
1378;SDS011;683;48.738;9.226;2023-02-28T00:13:38;2.93;;;2.70;;
1378;SDS011;683;48.738;9.226;2023-02-28T00:16:09;4.57;;;3.53;;
1378;SDS011;683;48.738;9.226;2023-02-28T00:18:38;3.50;;;3.27;;
1378;SDS011;683;48.738;9.226;2023-02-28T00:21:06;4.23;;;3.83;;
1378;SDS011;683;48.738;9.226;2023-02-28T00:23:34;3.47;;;3.17;;
1378;SDS011;683;48.738;9.226;2023-02-28T00:26:01;3.17;;;2.87;;
1378;SDS011;683;48.738;9.226;2023-02-28T00:28:30;4.07;;;2.73;;
1378;SDS011;683;48.738;9.226;2023-02-28T00:31:00;3.50;;;3.10;;
1378;SDS011;683;48.738;9.226;2023-02-28T00:33:28;3.07;;;2.87;;
1378;SDS011;683;48.738;9.226;2023-02-28T00:36:03;3.73;;;3.33;;
1378;SDS011;683;48.738;9.226;2023-02-28T00:38:34;4.60;;;3.47;;
1378;SDS011;683;48.738;9.226;2023-02-28T00:41:02;11.50;;;3.33;;
1378;SDS011;683;48.738;9.226;2023-02-28T00:43:33;2.90;;;2.70;;
1378;SDS011;683;48.738;9.226;2023-02-28T00:46:02;2.83;;;2.60;;
1378;SDS011;683;48.738;9.226;2023-02-28T00:48:30;4.20;;;3.80;;
1378;SDS011;683;48.738;9.226;2023-02-28T00:50:59;3.23;;;2.93;;
1378;SDS011;683;48.738;9.226;2023-02-28T00:53:28;4.00;;;3.13;;
1378;SDS011;683;48.738;9.226;2023-02-28T00:55:57;4.27;;;2.97;;
1378;SDS011;683;48.738;9.226;2023-02-28T00:58:25;4.87;;;3.83;;
1378;SDS011;683;48.738;9.226;2023-02-28T01:00:54;4.77;;;3.40;;
1378;SDS011;683;48.738;9.226;2023-02-28T01:03:21;5.10;;;3.10;;
1378;SDS011;683;48.738;9.226;2023-02-28T01:05:51;3.40;;;3.10;;
1378;SDS011;683;48.738;9.226;2023-02-28T01:08:18;4.70;;;4.30;;
1378;SDS011;683;48.738;9.226;2023-02-28T01:10:49;3.17;;;2.93;;
1378;SDS011;683;48.738;9.226;2023-02-28T01:13:21;5.63;;;4.30;;
1378;SDS011;683;48.738;9.226;2023-02-28T01:15:51;3.60;;;2.77;;
1378;SDS011;683;48.738;9.226;2023-02-28T01:18:22;5.47;;;4.53;;
1378;SDS011;683;48.738;9.226;2023-02-28T01:20:49;11.30;;;4.30;;
1378;SDS011;683;48.738;9.226;2023-02-28T01:23:18;5.03;;;3.80;;
1378;SDS011;683;48.738;9.226;2023-02-28T01:25:49;3.93;;;3.40;;
1378;SDS011;683;48.738;9.226;2023-02-28T01:28:19;10.00;;;4.20;;
1378;SDS011;683;48.738;9.226;2023-02-28T01:30:49;3.97;;;3.57;;
1378;SDS011;683;48.738;9.226;2023-02-28T01:33:17;4.80;;;3.37;;
1378;SDS011;683;48.738;9.226;2023-02-28T01:35:47;4.00;;;3.53;;
1378;SDS011;683;48.738;9.226;2023-02-28T01:38:14;5.23;;;3.70;;
1378;SDS011;683;48.738;9.226;2023-02-28T01:40:42;4.37;;;3.73;;
1378;SDS011;683;48.738;9.226;2023-02-28T01:43:10;3.50;;;3.20;;
1378;SDS011;683;48.738;9.226;2023-02-28T01:45:46;4.67;;;3.97;;
1378;SDS011;683;48.738;9.226;2023-02-28T01:48:13;5.80;;;4.40;;
1378;SDS011;683;48.738;9.226;2023-02-28T01:50:42;4.40;;;3.70;;
1378;SDS011;683;48.738;9.226;2023-02-28T01:53:15;4.20;;;3.80;;
1378;SDS011;683;48.738;9.226;2023-02-28T01:55:49;3.93;;;3.50;;
1378;SDS011;683;48.738;9.226;2023-02-28T01:58:20;4.03;;;3.73;;
1378;SDS011;683;48.738;9.226;2023-02-28T02:00:49;5.57;;;3.90;;
1378;SDS011;683;48.738;9.226;2023-02-28T02:03:18;5.50;;;4.53;;
1378;SDS011;683;48.738;9.226;2023-02-28T02:05:49;6.90;;;5.30;;
1378;SDS011;683;48.738;9.226;2023-02-28T02:08:19;3.97;;;3.60;;
1378;SDS011;683;48.738;9.226;2023-02-28T02:10:51;4.97;;;4.47;;
1378;SDS011;683;48.738;9.226;2023-02-28T02:13:30;5.60;;;4.37;;
1378;SDS011;683;48.738;9.226;2023-02-28T02:16:12;6.73;;;4.40;;
1378;SDS011;683;48.738;9.226;2023-02-28T02:18:51;5.80;;;5.13;;
1378;SDS011;683;48.738;9.226;2023-02-28T02:24:45;4.83;;;4.40;;
1378;SDS011;683;48.738;9.226;2023-02-28T02:27:27;5.47;;;4.97;;
1378;SDS011;683;48.738;9.226;2023-02-28T02:30:28;4.57;;;4.13;;
1378;SDS011;683;48.738;9.226;2023-02-28T02:33:16;4.50;;;4.20;;
1378;SDS011;683;48.738;9.226;2023-02-28T02:35:57;4.90;;;4.50;;
1378;SDS011;683;48.738;9.226;2023-02-28T02:38:31;4.57;;;4.17;;
1378;SDS011;683;48.738;9.226;2023-02-28T02:41:04;6.43;;;5.00;;
1378;SDS011;683;48.738;9.226;2023-02-28T02:43:36;6.10;;;4.80;;
1378;SDS011;683;48.738;9.226;2023-02-28T02:46:10;5.00;;;4.40;;
1378;SDS011;683;48.738;9.226;2023-02-28T02:48:44;6.50;;;4.27;;
1378;SDS011;683;48.738;9.226;2023-02-28T02:51:14;5.03;;;4.23;;
1378;SDS011;683;48.738;9.226;2023-02-28T02:53:46;8.13;;;5.20;;
1378;SDS011;683;48.738;9.226;2023-02-28T02:56:17;7.30;;;4.37;;
1378;SDS011;683;48.738;9.226;2023-02-28T02:58:47;7.30;;;5.03;;
1378;SDS011;683;48.738;9.226;2023-02-28T03:01:18;7.80;;;4.40;;
1378;SDS011;683;48.738;9.226;2023-02-28T03:03:54;8.20;;;5.30;;
1378;SDS011;683;48.738;9.226;2023-02-28T03:06:25;5.87;;;5.13;;
1378;SDS011;683;48.738;9.226;2023-02-28T03:08:52;5.67;;;4.33;;
1378;SDS011;683;48.738;9.226;2023-02-28T03:11:21;7.50;;;4.97;;
1378;SDS011;683;48.738;9.226;2023-02-28T03:13:52;5.50;;;4.50;;
1378;SDS011;683;48.738;9.226;2023-02-28T03:16:32;5.60;;;4.00;;
1378;SDS011;683;48.738;9.226;2023-02-28T03:19:14;6.40;;;4.73;;
1378;SDS011;683;48.738;9.226;2023-02-28T03:22:09;5.70;;;4.83;;
1378;SDS011;683;48.738;9.226;2023-02-28T03:24:49;6.90;;;4.70;;
1378;SDS011;683;48.738;9.226;2023-02-28T03:27:23;5.13;;;4.63;;
1378;SDS011;683;48.738;9.226;2023-02-28T03:29:55;5.43;;;4.73;;
1378;SDS011;683;48.738;9.226;2023-02-28T03:32:33;5.80;;;5.20;;
1378;SDS011;683;48.738;9.226;2023-02-28T03:35:05;5.60;;;5.10;;
1378;SDS011;683;48.738;9.226;2023-02-28T03:37:38;6.80;;;4.67;;
1378;SDS011;683;48.738;9.226;2023-02-28T03:40:08;9.23;;;5.23;;
1378;SDS011;683;48.738;9.226;2023-02-28T03:42:40;5.67;;;5.17;;
1378;SDS011;683;48.738;9.226;2023-02-28T03:45:11;5.33;;;4.77;;
1378;SDS011;683;48.738;9.226;2023-02-28T03:47:45;5.73;;;4.70;;
1378;SDS011;683;48.738;9.226;2023-02-28T03:50:18;6.20;;;4.93;;
1378;SDS011;683;48.738;9.226;2023-02-28T03:52:50;6.57;;;4.93;;
1378;SDS011;683;48.738;9.226;2023-02-28T03:55:26;5.27;;;4.77;;
1378;SDS011;683;48.738;9.226;2023-02-28T03:57:58;7.43;;;5.50;;
1378;SDS011;683;48.738;9.226;2023-02-28T04:00:34;5.50;;;5.00;;
1378;SDS011;683;48.738;9.226;2023-02-28T04:03:06;6.03;;;5.40;;
1378;SDS011;683;48.738;9.226;2023-02-28T04:05:33;9.00;;;5.67;;
1378;SDS011;683;48.738;9.226;2023-02-28T04:08:15;5.53;;;5.00;;
1378;SDS011;683;48.738;9.226;2023-02-28T04:10:43;5.33;;;4.83;;
1378;SDS011;683;48.738;9.226;2023-02-28T04:13:14;6.73;;;5.83;;
1378;SDS011;683;48.738;9.226;2023-02-28T04:15:42;7.20;;;6.20;;
1378;SDS011;683;48.738;9.226;2023-02-28T04:18:09;7.50;;;6.33;;
1378;SDS011;683;48.738;9.226;2023-02-28T04:20:36;5.07;;;4.37;;
1378;SDS011;683;48.738;9.226;2023-02-28T04:23:04;5.70;;;5.20;;
1378;SDS011;683;48.738;9.226;2023-02-28T04:25:32;6.87;;;5.60;;
1378;SDS011;683;48.738;9.226;2023-02-28T04:28:00;6.10;;;4.80;;
1378;SDS011;683;48.738;9.226;2023-02-28T04:30:27;7.63;;;6.40;;
1378;SDS011;683;48.738;9.226;2023-02-28T04:32:54;6.20;;;5.30;;
1378;SDS011;683;48.738;9.226;2023-02-28T04:35:22;6.40;;;5.80;;
1378;SDS011;683;48.738;9.226;2023-02-28T04:37:49;5.47;;;4.97;;
1378;SDS011;683;48.738;9.226;2023-02-28T04:40:16;7.03;;;5.70;;
1378;SDS011;683;48.738;9.226;2023-02-28T04:42:45;5.80;;;5.17;;
1378;SDS011;683;48.738;9.226;2023-02-28T04:45:12;10.40;;;6.17;;
1378;SDS011;683;48.738;9.226;2023-02-28T04:47:40;5.33;;;4.80;;
1378;SDS011;683;48.738;9.226;2023-02-28T04:50:07;7.27;;;5.93;;
1378;SDS011;683;48.738;9.226;2023-02-28T04:52:35;8.13;;;5.87;;
1378;SDS011;683;48.738;9.226;2023-02-28T04:55:03;6.53;;;5.90;;
1378;SDS011;683;48.738;9.226;2023-02-28T04:57:31;7.43;;;5.97;;
1378;SDS011;683;48.738;9.226;2023-02-28T05:00:00;7.43;;;5.43;;
1378;SDS011;683;48.738;9.226;2023-02-28T05:02:32;7.20;;;6.50;;
1378;SDS011;683;48.738;9.226;2023-02-28T05:05:01;6.37;;;5.77;;
1378;SDS011;683;48.738;9.226;2023-02-28T05:07:28;7.37;;;6.70;;
1378;SDS011;683;48.738;9.226;2023-02-28T05:09:55;8.00;;;6.17;;
1378;SDS011;683;48.738;9.226;2023-02-28T05:12:23;8.27;;;6.43;;
1378;SDS011;683;48.738;9.226;2023-02-28T05:14:50;14.57;;;7.83;;
1378;SDS011;683;48.738;9.226;2023-02-28T05:17:19;8.97;;;6.27;;
1378;SDS011;683;48.738;9.226;2023-02-28T05:19:49;8.13;;;6.33;;
1378;SDS011;683;48.738;9.226;2023-02-28T05:22:16;8.93;;;7.07;;
1378;SDS011;683;48.738;9.226;2023-02-28T05:24:43;8.80;;;6.70;;
1378;SDS011;683;48.738;9.226;2023-02-28T05:27:10;8.80;;;6.57;;
1378;SDS011;683;48.738;9.226;2023-02-28T05:29:38;8.20;;;6.70;;
1378;SDS011;683;48.738;9.226;2023-02-28T05:32:11;6.73;;;6.03;;
1378;SDS011;683;48.738;9.226;2023-02-28T05:34:40;7.03;;;6.33;;
1378;SDS011;683;48.738;9.226;2023-02-28T05:37:10;8.30;;;7.50;;
1378;SDS011;683;48.738;9.226;2023-02-28T05:39:39;6.30;;;5.70;;
1378;SDS011;683;48.738;9.226;2023-02-28T05:42:06;6.83;;;5.83;;
1378;SDS011;683;48.738;9.226;2023-02-28T05:44:37;7.60;;;6.43;;
1378;SDS011;683;48.738;9.226;2023-02-28T05:47:04;13.17;;;7.33;;
1378;SDS011;683;48.738;9.226;2023-02-28T05:49:31;8.07;;;7.17;;
1378;SDS011;683;48.738;9.226;2023-02-28T05:52:02;6.70;;;5.70;;
1378;SDS011;683;48.738;9.226;2023-02-28T05:54:30;8.10;;;6.70;;
1378;SDS011;683;48.738;9.226;2023-02-28T05:57:00;6.87;;;6.17;;
1378;SDS011;683;48.738;9.226;2023-02-28T05:59:28;8.30;;;5.83;;
1378;SDS011;683;48.738;9.226;2023-02-28T06:01:56;7.10;;;6.40;;
1378;SDS011;683;48.738;9.226;2023-02-28T06:04:23;9.97;;;7.20;;
1378;SDS011;683;48.738;9.226;2023-02-28T06:06:51;7.97;;;6.60;;
1378;SDS011;683;48.738;9.226;2023-02-28T06:09:20;7.43;;;6.50;;
1378;SDS011;683;48.738;9.226;2023-02-28T06:11:48;8.03;;;6.57;;
1378;SDS011;683;48.738;9.226;2023-02-28T06:14:16;7.63;;;6.87;;
1378;SDS011;683;48.738;9.226;2023-02-28T06:16:45;8.40;;;6.97;;
1378;SDS011;683;48.738;9.226;2023-02-28T06:19:12;9.23;;;7.50;;
1378;SDS011;683;48.738;9.226;2023-02-28T06:21:40;9.07;;;7.13;;
1378;SDS011;683;48.738;9.226;2023-02-28T06:24:08;8.70;;;7.50;;
1378;SDS011;683;48.738;9.226;2023-02-28T06:26:37;11.37;;;7.70;;
1378;SDS011;683;48.738;9.226;2023-02-28T06:29:04;8.67;;;7.27;;
1378;SDS011;683;48.738;9.226;2023-02-28T06:31:33;10.37;;;7.00;;
1378;SDS011;683;48.738;9.226;2023-02-28T06:34:02;9.60;;;7.03;;
1378;SDS011;683;48.738;9.226;2023-02-28T06:36:29;10.23;;;8.40;;
1378;SDS011;683;48.738;9.226;2023-02-28T06:38:56;12.00;;;7.00;;
1378;SDS011;683;48.738;9.226;2023-02-28T06:41:24;9.03;;;7.13;;
1378;SDS011;683;48.738;9.226;2023-02-28T06:43:53;8.40;;;7.37;;
1378;SDS011;683;48.738;9.226;2023-02-28T06:46:21;9.43;;;8.20;;
1378;SDS011;683;48.738;9.226;2023-02-28T06:48:48;8.63;;;7.37;;
1378;SDS011;683;48.738;9.226;2023-02-28T06:51:17;9.20;;;6.77;;
1378;SDS011;683;48.738;9.226;2023-02-28T06:53:47;10.10;;;8.20;;
1378;SDS011;683;48.738;9.226;2023-02-28T06:56:15;9.53;;;7.80;;
1378;SDS011;683;48.738;9.226;2023-02-28T06:58:45;10.00;;;8.13;;
1378;SDS011;683;48.738;9.226;2023-02-28T07:01:15;8.77;;;7.53;;
1378;SDS011;683;48.738;9.226;2023-02-28T07:03:42;9.80;;;8.07;;
1378;SDS011;683;48.738;9.226;2023-02-28T07:06:10;9.57;;;6.80;;
1378;SDS011;683;48.738;9.226;2023-02-28T07:08:39;12.43;;;8.40;;
1378;SDS011;683;48.738;9.226;2023-02-28T07:11:06;11.70;;;8.67;;
1378;SDS011;683;48.738;9.226;2023-02-28T07:13:33;15.17;;;9.03;;
1378;SDS011;683;48.738;9.226;2023-02-28T07:16:02;10.50;;;8.07;;
1378;SDS011;683;48.738;9.226;2023-02-28T07:18:32;9.53;;;7.63;;
1378;SDS011;683;48.738;9.226;2023-02-28T07:21:01;10.60;;;8.60;;
1378;SDS011;683;48.738;9.226;2023-02-28T07:23:29;11.13;;;8.47;;
1378;SDS011;683;48.738;9.226;2023-02-28T07:25:56;11.20;;;9.80;;
1378;SDS011;683;48.738;9.226;2023-02-28T07:28:24;9.23;;;8.00;;
1378;SDS011;683;48.738;9.226;2023-02-28T07:30:52;11.50;;;8.80;;
1378;SDS011;683;48.738;9.226;2023-02-28T07:33:19;11.00;;;8.03;;
1378;SDS011;683;48.738;9.226;2023-02-28T07:35:47;11.27;;;8.50;;
1378;SDS011;683;48.738;9.226;2023-02-28T07:38:15;10.33;;;8.20;;
1378;SDS011;683;48.738;9.226;2023-02-28T07:40:42;10.70;;;7.87;;
1378;SDS011;683;48.738;9.226;2023-02-28T07:43:12;13.57;;;9.17;;
1378;SDS011;683;48.738;9.226;2023-02-28T07:45:41;11.10;;;8.63;;
1378;SDS011;683;48.738;9.226;2023-02-28T07:48:09;10.67;;;9.53;;
1378;SDS011;683;48.738;9.226;2023-02-28T07:50:36;10.47;;;8.80;;
1378;SDS011;683;48.738;9.226;2023-02-28T07:53:05;12.23;;;8.30;;
1378;SDS011;683;48.738;9.226;2023-02-28T07:55:34;9.40;;;7.90;;
1378;SDS011;683;48.738;9.226;2023-02-28T07:58:02;11.47;;;9.07;;
1378;SDS011;683;48.738;9.226;2023-02-28T08:00:29;12.80;;;8.50;;
1378;SDS011;683;48.738;9.226;2023-02-28T08:02:57;15.40;;;9.57;;
1378;SDS011;683;48.738;9.226;2023-02-28T08:05:24;10.70;;;9.60;;
1378;SDS011;683;48.738;9.226;2023-02-28T08:07:54;10.73;;;9.37;;
1378;SDS011;683;48.738;9.226;2023-02-28T08:10:23;11.90;;;9.10;;
1378;SDS011;683;48.738;9.226;2023-02-28T08:12:50;9.70;;;8.43;;
1378;SDS011;683;48.738;9.226;2023-02-28T08:15:17;15.17;;;10.27;;
1378;SDS011;683;48.738;9.226;2023-02-28T08:17:45;10.57;;;9.07;;
1378;SDS011;683;48.738;9.226;2023-02-28T08:20:12;13.73;;;9.90;;
1378;SDS011;683;48.738;9.226;2023-02-28T08:22:41;10.30;;;9.10;;
1378;SDS011;683;48.738;9.226;2023-02-28T08:25:09;9.90;;;8.90;;
1378;SDS011;683;48.738;9.226;2023-02-28T08:27:40;13.33;;;8.47;;
1378;SDS011;683;48.738;9.226;2023-02-28T08:30:08;9.67;;;8.00;;
1378;SDS011;683;48.738;9.226;2023-02-28T08:32:37;12.00;;;9.17;;
1378;SDS011;683;48.738;9.226;2023-02-28T08:35:05;11.33;;;9.07;;
1378;SDS011;683;48.738;9.226;2023-02-28T08:37:36;11.53;;;9.00;;
1378;SDS011;683;48.738;9.226;2023-02-28T08:40:04;10.40;;;8.80;;
1378;SDS011;683;48.738;9.226;2023-02-28T08:42:32;12.90;;;9.13;;
1378;SDS011;683;48.738;9.226;2023-02-28T08:45:01;11.17;;;9.43;;
1378;SDS011;683;48.738;9.226;2023-02-28T08:47:28;11.17;;;8.90;;
1378;SDS011;683;48.738;9.226;2023-02-28T08:49:58;10.40;;;9.10;;
1378;SDS011;683;48.738;9.226;2023-02-28T08:52:25;10.80;;;8.47;;
1378;SDS011;683;48.738;9.226;2023-02-28T08:54:55;9.97;;;8.33;;
1378;SDS011;683;48.738;9.226;2023-02-28T08:57:25;11.47;;;8.83;;
1378;SDS011;683;48.738;9.226;2023-02-28T08:59:52;10.10;;;9.00;;
1378;SDS011;683;48.738;9.226;2023-02-28T09:02:21;11.27;;;8.40;;
1378;SDS011;683;48.738;9.226;2023-02-28T09:04:48;12.57;;;9.10;;
1378;SDS011;683;48.738;9.226;2023-02-28T09:07:16;12.93;;;9.10;;
1378;SDS011;683;48.738;9.226;2023-02-28T09:09:43;11.50;;;9.53;;
1378;SDS011;683;48.738;9.226;2023-02-28T09:12:20;9.93;;;8.93;;
1378;SDS011;683;48.738;9.226;2023-02-28T09:14:48;13.20;;;8.83;;
1378;SDS011;683;48.738;9.226;2023-02-28T09:17:15;9.47;;;8.40;;
1378;SDS011;683;48.738;9.226;2023-02-28T09:19:44;9.83;;;8.57;;
1378;SDS011;683;48.738;9.226;2023-02-28T09:22:14;11.20;;;9.97;;
1378;SDS011;683;48.738;9.226;2023-02-28T09:24:42;13.30;;;9.67;;
1378;SDS011;683;48.738;9.226;2023-02-28T09:27:10;12.23;;;9.17;;
1378;SDS011;683;48.738;9.226;2023-02-28T09:29:37;12.67;;;11.03;;
1378;SDS011;683;48.738;9.226;2023-02-28T09:32:05;10.67;;;9.00;;
1378;SDS011;683;48.738;9.226;2023-02-28T09:34:32;12.07;;;9.40;;
1378;SDS011;683;48.738;9.226;2023-02-28T09:37:03;11.43;;;8.10;;
1378;SDS011;683;48.738;9.226;2023-02-28T09:39:30;11.50;;;8.70;;
1378;SDS011;683;48.738;9.226;2023-02-28T09:41:58;15.23;;;9.23;;
1378;SDS011;683;48.738;9.226;2023-02-28T09:44:27;13.53;;;9.97;;
1378;SDS011;683;48.738;9.226;2023-02-28T09:47:08;11.20;;;8.57;;
1378;SDS011;683;48.738;9.226;2023-02-28T09:49:42;10.10;;;9.00;;
1378;SDS011;683;48.738;9.226;2023-02-28T09:52:15;13.07;;;10.20;;
1378;SDS011;683;48.738;9.226;2023-02-28T09:54:45;12.33;;;10.13;;
1378;SDS011;683;48.738;9.226;2023-02-28T09:57:15;11.63;;;8.40;;
1378;SDS011;683;48.738;9.226;2023-02-28T10:00:00;12.37;;;8.60;;
1378;SDS011;683;48.738;9.226;2023-02-28T10:02:41;14.97;;;10.70;;
1378;SDS011;683;48.738;9.226;2023-02-28T10:05:21;15.20;;;10.90;;
1378;SDS011;683;48.738;9.226;2023-02-28T10:08:01;13.40;;;9.50;;
1378;SDS011;683;48.738;9.226;2023-02-28T10:10:35;12.37;;;9.40;;
1378;SDS011;683;48.738;9.226;2023-02-28T10:13:06;13.77;;;9.37;;
1378;SDS011;683;48.738;9.226;2023-02-28T10:15:42;13.40;;;10.60;;
1378;SDS011;683;48.738;9.226;2023-02-28T10:18:13;11.33;;;9.80;;
1378;SDS011;683;48.738;9.226;2023-02-28T10:20:46;11.00;;;9.53;;
1378;SDS011;683;48.738;9.226;2023-02-28T10:23:20;13.10;;;9.67;;
1378;SDS011;683;48.738;9.226;2023-02-28T10:25:52;11.30;;;9.70;;
1378;SDS011;683;48.738;9.226;2023-02-28T10:28:21;12.57;;;10.50;;
1378;SDS011;683;48.738;9.226;2023-02-28T10:30:51;12.50;;;10.50;;
1378;SDS011;683;48.738;9.226;2023-02-28T10:33:21;13.03;;;8.60;;
1378;SDS011;683;48.738;9.226;2023-02-28T10:35:50;14.17;;;9.83;;
1378;SDS011;683;48.738;9.226;2023-02-28T10:38:22;10.17;;;8.63;;
1378;SDS011;683;48.738;9.226;2023-02-28T10:40:51;13.20;;;10.47;;
1378;SDS011;683;48.738;9.226;2023-02-28T10:43:29;11.17;;;9.37;;
1378;SDS011;683;48.738;9.226;2023-02-28T10:46:01;12.33;;;10.67;;
1378;SDS011;683;48.738;9.226;2023-02-28T10:48:33;13.23;;;9.93;;
1378;SDS011;683;48.738;9.226;2023-02-28T10:51:03;11.17;;;9.43;;
1378;SDS011;683;48.738;9.226;2023-02-28T10:53:35;12.33;;;10.10;;
1378;SDS011;683;48.738;9.226;2023-02-28T10:56:12;10.57;;;9.47;;
1378;SDS011;683;48.738;9.226;2023-02-28T10:58:48;12.07;;;10.57;;
1378;SDS011;683;48.738;9.226;2023-02-28T11:01:20;10.53;;;8.77;;
1378;SDS011;683;48.738;9.226;2023-02-28T11:03:49;11.90;;;9.67;;
1378;SDS011;683;48.738;9.226;2023-02-28T11:06:17;11.50;;;10.07;;
1378;SDS011;683;48.738;9.226;2023-02-28T11:08:49;12.40;;;10.60;;
1378;SDS011;683;48.738;9.226;2023-02-28T11:11:20;11.03;;;9.80;;
1378;SDS011;683;48.738;9.226;2023-02-28T11:13:50;12.57;;;10.40;;
1378;SDS011;683;48.738;9.226;2023-02-28T11:16:22;12.57;;;9.43;;
1378;SDS011;683;48.738;9.226;2023-02-28T11:19:00;15.27;;;10.77;;
1378;SDS011;683;48.738;9.226;2023-02-28T11:21:45;10.60;;;8.60;;
1378;SDS011;683;48.738;9.226;2023-02-28T11:24:23;12.33;;;10.20;;
1378;SDS011;683;48.738;9.226;2023-02-28T11:26:54;11.57;;;10.40;;
1378;SDS011;683;48.738;9.226;2023-02-28T11:29:22;11.47;;;9.50;;
1378;SDS011;683;48.738;9.226;2023-02-28T11:32:03;11.63;;;9.83;;
1378;SDS011;683;48.738;9.226;2023-02-28T11:34:39;13.10;;;10.30;;
1378;SDS011;683;48.738;9.226;2023-02-28T11:37:09;11.57;;;10.37;;
1378;SDS011;683;48.738;9.226;2023-02-28T11:39:42;12.10;;;9.80;;
1378;SDS011;683;48.738;9.226;2023-02-28T11:42:13;12.00;;;10.10;;
1378;SDS011;683;48.738;9.226;2023-02-28T11:44:57;14.97;;;10.20;;
1378;SDS011;683;48.738;9.226;2023-02-28T11:47:37;11.47;;;10.00;;
1378;SDS011;683;48.738;9.226;2023-02-28T11:50:21;11.33;;;9.00;;
1378;SDS011;683;48.738;9.226;2023-02-28T11:52:59;13.50;;;11.07;;
1378;SDS011;683;48.738;9.226;2023-02-28T11:55:35;11.17;;;10.03;;
1378;SDS011;683;48.738;9.226;2023-02-28T11:58:09;10.37;;;9.27;;
1378;SDS011;683;48.738;9.226;2023-02-28T12:00:53;11.63;;;10.43;;
1378;SDS011;683;48.738;9.226;2023-02-28T12:03:29;12.80;;;10.13;;
1378;SDS011;683;48.738;9.226;2023-02-28T12:06:13;10.33;;;9.23;;
1378;SDS011;683;48.738;9.226;2023-02-28T12:11:38;11.73;;;9.80;;
1378;SDS011;683;48.738;9.226;2023-02-28T12:14:17;9.90;;;8.90;;
1378;SDS011;683;48.738;9.226;2023-02-28T12:17:06;12.80;;;10.00;;
1378;SDS011;683;48.738;9.226;2023-02-28T12:19:45;10.73;;;8.83;;
1378;SDS011;683;48.738;9.226;2023-02-28T12:22:30;10.60;;;9.50;;
1378;SDS011;683;48.738;9.226;2023-02-28T12:28:10;11.83;;;9.60;;
1378;SDS011;683;48.738;9.226;2023-02-28T12:30:41;10.97;;;9.80;;
1378;SDS011;683;48.738;9.226;2023-02-28T12:33:19;11.50;;;9.70;;
1378;SDS011;683;48.738;9.226;2023-02-28T12:35:52;11.03;;;9.87;;
1378;SDS011;683;48.738;9.226;2023-02-28T12:38:22;13.60;;;9.53;;
1378;SDS011;683;48.738;9.226;2023-02-28T12:40:53;11.07;;;9.97;;
1378;SDS011;683;48.738;9.226;2023-02-28T12:43:27;11.47;;;10.13;;
1378;SDS011;683;48.738;9.226;2023-02-28T12:45:59;11.90;;;10.77;;
1378;SDS011;683;48.738;9.226;2023-02-28T12:48:39;13.60;;;10.50;;
1378;SDS011;683;48.738;9.226;2023-02-28T12:51:09;11.27;;;10.07;;
1378;SDS011;683;48.738;9.226;2023-02-28T12:53:41;12.03;;;10.10;;
1378;SDS011;683;48.738;9.226;2023-02-28T12:56:19;11.30;;;10.13;;
1378;SDS011;683;48.738;9.226;2023-02-28T12:59:00;11.60;;;10.40;;
1378;SDS011;683;48.738;9.226;2023-02-28T13:01:40;16.00;;;12.17;;
1378;SDS011;683;48.738;9.226;2023-02-28T13:10:39;10.90;;;9.80;;
1378;SDS011;683;48.738;9.226;2023-02-28T13:13:13;11.93;;;10.73;;
1378;SDS011;683;48.738;9.226;2023-02-28T13:15:59;13.43;;;10.43;;
1378;SDS011;683;48.738;9.226;2023-02-28T13:18:29;10.23;;;9.23;;
1378;SDS011;683;48.738;9.226;2023-02-28T13:21:06;12.07;;;10.50;;
1378;SDS011;683;48.738;9.226;2023-02-28T13:23:38;10.77;;;9.63;;
1378;SDS011;683;48.738;9.226;2023-02-28T13:29:36;12.27;;;11.07;;
1378;SDS011;683;48.738;9.226;2023-02-28T13:32:27;9.73;;;8.83;;
1378;SDS011;683;48.738;9.226;2023-02-28T13:38:12;11.70;;;10.60;;
1378;SDS011;683;48.738;9.226;2023-02-28T13:44:03;11.17;;;10.17;;
1378;SDS011;683;48.738;9.226;2023-02-28T13:46:32;11.63;;;9.60;;
1378;SDS011;683;48.738;9.226;2023-02-28T13:49:38;11.73;;;10.30;;
1378;SDS011;683;48.738;9.226;2023-02-28T13:52:09;13.40;;;10.30;;
1378;SDS011;683;48.738;9.226;2023-02-28T13:54:45;13.07;;;11.23;;
1378;SDS011;683;48.738;9.226;2023-02-28T13:57:45;11.67;;;10.47;;
1378;SDS011;683;48.738;9.226;2023-02-28T14:00:28;10.47;;;9.57;;
1378;SDS011;683;48.738;9.226;2023-02-28T14:08:58;10.57;;;9.60;;
1378;SDS011;683;48.738;9.226;2023-02-28T14:11:30;11.30;;;10.30;;
1378;SDS011;683;48.738;9.226;2023-02-28T14:13:59;10.80;;;9.80;;
1378;SDS011;683;48.738;9.226;2023-02-28T14:16:35;11.53;;;10.40;;
1378;SDS011;683;48.738;9.226;2023-02-28T14:19:09;11.17;;;10.00;;
1378;SDS011;683;48.738;9.226;2023-02-28T14:21:46;10.63;;;9.40;;
1378;SDS011;683;48.738;9.226;2023-02-28T14:24:33;12.40;;;9.30;;
1378;SDS011;683;48.738;9.226;2023-02-28T14:27:31;9.83;;;8.90;;
1378;SDS011;683;48.738;9.226;2023-02-28T14:33:13;11.07;;;9.97;;
1378;SDS011;683;48.738;9.226;2023-02-28T14:36:03;11.03;;;10.03;;
1378;SDS011;683;48.738;9.226;2023-02-28T14:38:41;11.80;;;10.60;;
1378;SDS011;683;48.738;9.226;2023-02-28T14:41:17;9.70;;;8.80;;
1378;SDS011;683;48.738;9.226;2023-02-28T14:43:48;11.73;;;10.53;;
1378;SDS011;683;48.738;9.226;2023-02-28T14:46:22;10.83;;;9.93;;
1378;SDS011;683;48.738;9.226;2023-02-28T14:48:53;10.90;;;9.90;;
1378;SDS011;683;48.738;9.226;2023-02-28T14:51:23;10.63;;;9.73;;
1378;SDS011;683;48.738;9.226;2023-02-28T14:54:00;10.07;;;9.07;;
1378;SDS011;683;48.738;9.226;2023-02-28T14:56:30;10.73;;;9.73;;
1378;SDS011;683;48.738;9.226;2023-02-28T14:59:04;11.60;;;10.03;;
1378;SDS011;683;48.738;9.226;2023-02-28T15:01:32;12.63;;;10.83;;
1378;SDS011;683;48.738;9.226;2023-02-28T15:04:00;18.40;;;10.93;;
1378;SDS011;683;48.738;9.226;2023-02-28T15:06:30;10.07;;;9.13;;
1378;SDS011;683;48.738;9.226;2023-02-28T15:09:09;10.27;;;9.20;;
1378;SDS011;683;48.738;9.226;2023-02-28T15:11:40;12.10;;;10.40;;
1378;SDS011;683;48.738;9.226;2023-02-28T15:14:12;20.43;;;9.40;;
1378;SDS011;683;48.738;9.226;2023-02-28T15:16:46;9.57;;;8.67;;
1378;SDS011;683;48.738;9.226;2023-02-28T15:19:20;12.63;;;10.20;;
1378;SDS011;683;48.738;9.226;2023-02-28T15:21:51;11.27;;;9.30;;
1378;SDS011;683;48.738;9.226;2023-02-28T15:24:29;10.13;;;9.10;;
1378;SDS011;683;48.738;9.226;2023-02-28T15:27:03;12.90;;;9.73;;
1378;SDS011;683;48.738;9.226;2023-02-28T15:29:34;10.70;;;9.20;;
1378;SDS011;683;48.738;9.226;2023-02-28T15:32:17;10.50;;;8.90;;
1378;SDS011;683;48.738;9.226;2023-02-28T15:34:50;10.60;;;9.17;;
1378;SDS011;683;48.738;9.226;2023-02-28T15:37:27;12.97;;;11.37;;
1378;SDS011;683;48.738;9.226;2023-02-28T15:39:58;12.30;;;11.07;;
1378;SDS011;683;48.738;9.226;2023-02-28T15:42:34;10.17;;;9.17;;
1378;SDS011;683;48.738;9.226;2023-02-28T15:45:01;12.50;;;9.60;;
1378;SDS011;683;48.738;9.226;2023-02-28T15:47:29;13.93;;;10.07;;
1378;SDS011;683;48.738;9.226;2023-02-28T15:49:58;10.60;;;9.50;;
1378;SDS011;683;48.738;9.226;2023-02-28T15:52:28;12.20;;;10.23;;
1378;SDS011;683;48.738;9.226;2023-02-28T15:54:59;10.70;;;9.60;;
1378;SDS011;683;48.738;9.226;2023-02-28T15:57:38;12.23;;;10.13;;
1378;SDS011;683;48.738;9.226;2023-02-28T16:00:09;12.87;;;10.00;;
1378;SDS011;683;48.738;9.226;2023-02-28T16:02:40;13.50;;;11.57;;
1378;SDS011;683;48.738;9.226;2023-02-28T16:05:21;13.27;;;10.93;;
1378;SDS011;683;48.738;9.226;2023-02-28T16:07:56;12.50;;;10.43;;
1378;SDS011;683;48.738;9.226;2023-02-28T16:10:26;12.60;;;9.70;;
1378;SDS011;683;48.738;9.226;2023-02-28T16:12:56;10.60;;;9.47;;
1378;SDS011;683;48.738;9.226;2023-02-28T16:15:24;14.83;;;10.27;;
1378;SDS011;683;48.738;9.226;2023-02-28T16:17:55;10.30;;;9.20;;
1378;SDS011;683;48.738;9.226;2023-02-28T16:20:23;12.40;;;10.03;;
1378;SDS011;683;48.738;9.226;2023-02-28T16:22:56;11.90;;;10.17;;